sensor_id;sensor_type;location;lat;lon;timestamp;P1;durP1;ratioP1;P2;durP2;ratioP2
75691;SDS011;64307;52.508;6.090;2023-06-22T00:01:26;13.55;;;8.07;;
75691;SDS011;64307;52.508;6.090;2023-06-22T00:03:52;12.73;;;7.97;;
75691;SDS011;64307;52.508;6.090;2023-06-22T00:06:18;12.95;;;8.02;;
75691;SDS011;64307;52.508;6.090;2023-06-22T00:08:43;10.63;;;7.35;;
75691;SDS011;64307;52.508;6.090;2023-06-22T00:11:09;11.18;;;8.15;;
75691;SDS011;64307;52.508;6.090;2023-06-22T00:13:35;12.05;;;8.77;;
75691;SDS011;64307;52.508;6.090;2023-06-22T00:16:00;12.57;;;8.23;;
75691;SDS011;64307;52.508;6.090;2023-06-22T00:18:26;15.38;;;7.88;;
75691;SDS011;64307;52.508;6.090;2023-06-22T00:20:56;10.82;;;7.55;;
75691;SDS011;64307;52.508;6.090;2023-06-22T00:23:24;13.15;;;8.32;;
75691;SDS011;64307;52.508;6.090;2023-06-22T00:25:50;12.90;;;9.52;;
75691;SDS011;64307;52.508;6.090;2023-06-22T00:28:15;13.90;;;9.85;;
75691;SDS011;64307;52.508;6.090;2023-06-22T00:30:41;15.70;;;10.15;;
75691;SDS011;64307;52.508;6.090;2023-06-22T00:33:06;14.83;;;10.67;;
75691;SDS011;64307;52.508;6.090;2023-06-22T00:35:32;15.23;;;11.30;;
75691;SDS011;64307;52.508;6.090;2023-06-22T00:37:59;14.15;;;10.63;;
75691;SDS011;64307;52.508;6.090;2023-06-22T00:40:32;16.95;;;11.32;;
75691;SDS011;64307;52.508;6.090;2023-06-22T00:42:58;17.48;;;12.68;;
75691;SDS011;64307;52.508;6.090;2023-06-22T00:45:24;17.02;;;12.00;;
75691;SDS011;64307;52.508;6.090;2023-06-22T00:47:51;17.50;;;11.50;;
75691;SDS011;64307;52.508;6.090;2023-06-22T00:50:21;20.05;;;12.98;;
75691;SDS011;64307;52.508;6.090;2023-06-22T00:52:53;19.65;;;12.93;;
75691;SDS011;64307;52.508;6.090;2023-06-22T00:55:22;17.80;;;12.80;;
75691;SDS011;64307;52.508;6.090;2023-06-22T00:57:50;21.33;;;13.02;;
75691;SDS011;64307;52.508;6.090;2023-06-22T01:00:21;19.75;;;13.18;;
75691;SDS011;64307;52.508;6.090;2023-06-22T01:02:49;21.05;;;14.50;;
75691;SDS011;64307;52.508;6.090;2023-06-22T01:05:17;24.05;;;15.63;;
75691;SDS011;64307;52.508;6.090;2023-06-22T01:10:36;24.48;;;16.20;;
75691;SDS011;64307;52.508;6.090;2023-06-22T01:13:07;26.88;;;17.02;;
75691;SDS011;64307;52.508;6.090;2023-06-22T01:15:41;26.92;;;18.27;;
75691;SDS011;64307;52.508;6.090;2023-06-22T01:18:17;26.08;;;18.08;;
75691;SDS011;64307;52.508;6.090;2023-06-22T01:20:45;30.50;;;18.77;;
75691;SDS011;64307;52.508;6.090;2023-06-22T01:23:28;27.30;;;17.75;;
75691;SDS011;64307;52.508;6.090;2023-06-22T01:26:17;32.13;;;19.33;;
75691;SDS011;64307;52.508;6.090;2023-06-22T01:28:53;31.45;;;20.83;;
75691;SDS011;64307;52.508;6.090;2023-06-22T01:31:22;31.27;;;20.90;;
75691;SDS011;64307;52.508;6.090;2023-06-22T01:33:51;36.15;;;22.80;;
75691;SDS011;64307;52.508;6.090;2023-06-22T01:36:20;36.88;;;21.58;;
75691;SDS011;64307;52.508;6.090;2023-06-22T01:38:47;29.50;;;20.92;;
75691;SDS011;64307;52.508;6.090;2023-06-22T01:41:14;37.65;;;23.35;;
75691;SDS011;64307;52.508;6.090;2023-06-22T01:43:41;33.55;;;22.83;;
75691;SDS011;64307;52.508;6.090;2023-06-22T01:46:07;36.88;;;23.52;;
75691;SDS011;64307;52.508;6.090;2023-06-22T01:48:33;36.70;;;23.42;;
75691;SDS011;64307;52.508;6.090;2023-06-22T01:50:58;42.38;;;24.25;;
75691;SDS011;64307;52.508;6.090;2023-06-22T01:53:24;38.00;;;25.13;;
75691;SDS011;64307;52.508;6.090;2023-06-22T01:55:50;34.83;;;24.55;;
75691;SDS011;64307;52.508;6.090;2023-06-22T01:58:16;40.72;;;25.33;;
75691;SDS011;64307;52.508;6.090;2023-06-22T02:00:47;37.50;;;24.45;;
75691;SDS011;64307;52.508;6.090;2023-06-22T02:03:22;35.47;;;21.63;;
75691;SDS011;64307;52.508;6.090;2023-06-22T02:05:52;38.60;;;26.50;;
75691;SDS011;64307;52.508;6.090;2023-06-22T02:08:23;39.80;;;25.55;;
75691;SDS011;64307;52.508;6.090;2023-06-22T02:10:54;43.05;;;27.08;;
75691;SDS011;64307;52.508;6.090;2023-06-22T02:13:23;38.72;;;24.80;;
75691;SDS011;64307;52.508;6.090;2023-06-22T02:15:50;39.90;;;24.45;;
75691;SDS011;64307;52.508;6.090;2023-06-22T02:18:17;38.40;;;25.05;;
75691;SDS011;64307;52.508;6.090;2023-06-22T02:20:42;35.08;;;23.90;;
75691;SDS011;64307;52.508;6.090;2023-06-22T02:23:07;35.97;;;22.80;;
75691;SDS011;64307;52.508;6.090;2023-06-22T02:25:34;40.17;;;25.15;;
75691;SDS011;64307;52.508;6.090;2023-06-22T02:28:00;40.08;;;24.67;;
75691;SDS011;64307;52.508;6.090;2023-06-22T02:30:26;36.20;;;23.10;;
75691;SDS011;64307;52.508;6.090;2023-06-22T02:32:51;37.93;;;24.90;;
75691;SDS011;64307;52.508;6.090;2023-06-22T02:35:23;34.95;;;22.70;;
75691;SDS011;64307;52.508;6.090;2023-06-22T02:37:57;35.67;;;23.00;;
75691;SDS011;64307;52.508;6.090;2023-06-22T02:40:27;39.33;;;26.00;;
75691;SDS011;64307;52.508;6.090;2023-06-22T02:42:57;40.50;;;25.35;;
75691;SDS011;64307;52.508;6.090;2023-06-22T02:45:26;37.67;;;25.40;;
75691;SDS011;64307;52.508;6.090;2023-06-22T02:47:51;39.97;;;26.00;;
75691;SDS011;64307;52.508;6.090;2023-06-22T02:50:17;40.92;;;25.95;;
75691;SDS011;64307;52.508;6.090;2023-06-22T02:52:42;40.15;;;24.70;;
75691;SDS011;64307;52.508;6.090;2023-06-22T02:55:08;37.33;;;24.50;;
75691;SDS011;64307;52.508;6.090;2023-06-22T02:57:33;40.97;;;26.65;;
75691;SDS011;64307;52.508;6.090;2023-06-22T02:59:59;40.08;;;25.38;;
75691;SDS011;64307;52.508;6.090;2023-06-22T03:02:24;41.83;;;26.38;;
75691;SDS011;64307;52.508;6.090;2023-06-22T03:04:51;39.22;;;26.02;;
75691;SDS011;64307;52.508;6.090;2023-06-22T03:07:18;39.80;;;27.88;;
75691;SDS011;64307;52.508;6.090;2023-06-22T03:09:44;39.13;;;27.25;;
75691;SDS011;64307;52.508;6.090;2023-06-22T03:12:09;43.77;;;28.40;;
75691;SDS011;64307;52.508;6.090;2023-06-22T03:14:35;44.55;;;28.38;;
75691;SDS011;64307;52.508;6.090;2023-06-22T03:17:00;43.33;;;27.95;;
75691;SDS011;64307;52.508;6.090;2023-06-22T03:19:28;42.15;;;26.88;;
75691;SDS011;64307;52.508;6.090;2023-06-22T03:21:56;43.92;;;28.98;;
75691;SDS011;64307;52.508;6.090;2023-06-22T03:24:22;46.10;;;29.00;;
75691;SDS011;64307;52.508;6.090;2023-06-22T03:26:47;42.30;;;27.75;;
75691;SDS011;64307;52.508;6.090;2023-06-22T03:29:13;46.47;;;29.33;;
75691;SDS011;64307;52.508;6.090;2023-06-22T03:31:40;45.60;;;29.75;;
75691;SDS011;64307;52.508;6.090;2023-06-22T03:34:05;43.08;;;29.50;;
75691;SDS011;64307;52.508;6.090;2023-06-22T03:36:30;47.78;;;31.67;;
75691;SDS011;64307;52.508;6.090;2023-06-22T03:38:56;47.90;;;30.95;;
75691;SDS011;64307;52.508;6.090;2023-06-22T03:41:21;42.70;;;28.33;;
75691;SDS011;64307;52.508;6.090;2023-06-22T03:43:46;47.40;;;31.48;;
75691;SDS011;64307;52.508;6.090;2023-06-22T03:46:12;44.28;;;28.45;;
75691;SDS011;64307;52.508;6.090;2023-06-22T03:48:37;46.10;;;30.90;;
75691;SDS011;64307;52.508;6.090;2023-06-22T03:51:03;47.60;;;29.48;;
75691;SDS011;64307;52.508;6.090;2023-06-22T03:53:28;45.05;;;28.80;;
75691;SDS011;64307;52.508;6.090;2023-06-22T03:55:55;45.22;;;28.50;;
75691;SDS011;64307;52.508;6.090;2023-06-22T03:58:21;45.33;;;29.33;;
75691;SDS011;64307;52.508;6.090;2023-06-22T04:00:47;43.20;;;30.42;;
75691;SDS011;64307;52.508;6.090;2023-06-22T04:03:16;42.47;;;29.27;;
75691;SDS011;64307;52.508;6.090;2023-06-22T04:05:44;43.17;;;28.42;;
75691;SDS011;64307;52.508;6.090;2023-06-22T04:08:09;43.78;;;29.25;;
75691;SDS011;64307;52.508;6.090;2023-06-22T04:10:35;44.10;;;28.98;;
75691;SDS011;64307;52.508;6.090;2023-06-22T04:13:00;42.63;;;28.40;;
75691;SDS011;64307;52.508;6.090;2023-06-22T04:15:26;45.67;;;29.02;;
75691;SDS011;64307;52.508;6.090;2023-06-22T04:17:51;41.10;;;27.42;;
75691;SDS011;64307;52.508;6.090;2023-06-22T04:20:16;43.10;;;28.40;;
75691;SDS011;64307;52.508;6.090;2023-06-22T04:22:42;37.72;;;26.25;;
75691;SDS011;64307;52.508;6.090;2023-06-22T04:25:07;39.60;;;26.58;;
75691;SDS011;64307;52.508;6.090;2023-06-22T04:27:33;40.65;;;26.88;;
75691;SDS011;64307;52.508;6.090;2023-06-22T04:30:05;36.75;;;26.13;;
75691;SDS011;64307;52.508;6.090;2023-06-22T04:32:31;36.38;;;25.83;;
75691;SDS011;64307;52.508;6.090;2023-06-22T04:34:57;32.15;;;24.50;;
75691;SDS011;64307;52.508;6.090;2023-06-22T04:37:22;34.70;;;23.83;;
75691;SDS011;64307;52.508;6.090;2023-06-22T04:39:49;31.05;;;23.45;;
75691;SDS011;64307;52.508;6.090;2023-06-22T04:42:15;27.98;;;22.08;;
75691;SDS011;64307;52.508;6.090;2023-06-22T04:44:40;31.98;;;22.63;;
75691;SDS011;64307;52.508;6.090;2023-06-22T04:47:06;29.95;;;23.92;;
75691;SDS011;64307;52.508;6.090;2023-06-22T04:49:33;29.83;;;23.42;;
75691;SDS011;64307;52.508;6.090;2023-06-22T04:52:02;28.85;;;20.73;;
75691;SDS011;64307;52.508;6.090;2023-06-22T04:54:29;28.63;;;20.30;;
75691;SDS011;64307;52.508;6.090;2023-06-22T04:56:57;30.10;;;22.13;;
75691;SDS011;64307;52.508;6.090;2023-06-22T04:59:23;29.00;;;21.90;;
75691;SDS011;64307;52.508;6.090;2023-06-22T05:01:56;27.05;;;21.00;;
75691;SDS011;64307;52.508;6.090;2023-06-22T05:04:23;29.20;;;21.77;;
75691;SDS011;64307;52.508;6.090;2023-06-22T05:06:56;24.30;;;18.52;;
75691;SDS011;64307;52.508;6.090;2023-06-22T05:09:22;25.88;;;20.05;;
75691;SDS011;64307;52.508;6.090;2023-06-22T05:11:48;26.30;;;20.95;;
75691;SDS011;64307;52.508;6.090;2023-06-22T05:14:14;24.75;;;19.20;;
75691;SDS011;64307;52.508;6.090;2023-06-22T05:16:41;27.20;;;21.05;;
75691;SDS011;64307;52.508;6.090;2023-06-22T05:19:07;26.27;;;19.80;;
75691;SDS011;64307;52.508;6.090;2023-06-22T05:21:32;25.83;;;19.80;;
75691;SDS011;64307;52.508;6.090;2023-06-22T05:23:58;24.52;;;20.67;;
75691;SDS011;64307;52.508;6.090;2023-06-22T05:26:25;26.38;;;19.65;;
75691;SDS011;64307;52.508;6.090;2023-06-22T05:28:51;23.75;;;19.17;;
75691;SDS011;64307;52.508;6.090;2023-06-22T05:31:17;24.45;;;19.98;;
75691;SDS011;64307;52.508;6.090;2023-06-22T05:33:44;23.42;;;18.33;;
75691;SDS011;64307;52.508;6.090;2023-06-22T05:36:10;26.42;;;19.05;;
75691;SDS011;64307;52.508;6.090;2023-06-22T05:38:37;24.30;;;19.67;;
75691;SDS011;64307;52.508;6.090;2023-06-22T05:41:03;24.92;;;18.40;;
75691;SDS011;64307;52.508;6.090;2023-06-22T05:43:28;27.90;;;19.10;;
75691;SDS011;64307;52.508;6.090;2023-06-22T05:45:53;23.45;;;18.15;;
75691;SDS011;64307;52.508;6.090;2023-06-22T05:48:19;23.23;;;17.75;;
75691;SDS011;64307;52.508;6.090;2023-06-22T05:50:44;23.30;;;16.67;;
75691;SDS011;64307;52.508;6.090;2023-06-22T05:53:10;24.40;;;17.67;;
75691;SDS011;64307;52.508;6.090;2023-06-22T05:55:35;22.42;;;16.48;;
75691;SDS011;64307;52.508;6.090;2023-06-22T05:58:00;19.77;;;15.10;;
75691;SDS011;64307;52.508;6.090;2023-06-22T06:00:26;21.00;;;15.43;;
75691;SDS011;64307;52.508;6.090;2023-06-22T06:02:51;18.17;;;14.00;;
75691;SDS011;64307;52.508;6.090;2023-06-22T06:05:16;18.67;;;15.20;;
75691;SDS011;64307;52.508;6.090;2023-06-22T06:07:43;17.83;;;14.45;;
75691;SDS011;64307;52.508;6.090;2023-06-22T06:10:09;15.32;;;12.85;;
75691;SDS011;64307;52.508;6.090;2023-06-22T06:12:36;16.45;;;12.80;;
75691;SDS011;64307;52.508;6.090;2023-06-22T06:15:02;16.08;;;11.80;;
75691;SDS011;64307;52.508;6.090;2023-06-22T06:17:28;16.65;;;12.48;;
75691;SDS011;64307;52.508;6.090;2023-06-22T06:19:53;17.63;;;12.55;;
75691;SDS011;64307;52.508;6.090;2023-06-22T06:22:18;17.80;;;12.10;;
75691;SDS011;64307;52.508;6.090;2023-06-22T06:24:45;17.73;;;12.57;;
75691;SDS011;64307;52.508;6.090;2023-06-22T06:27:10;15.50;;;11.02;;
75691;SDS011;64307;52.508;6.090;2023-06-22T06:29:37;15.57;;;11.93;;
75691;SDS011;64307;52.508;6.090;2023-06-22T06:32:02;15.43;;;12.13;;
75691;SDS011;64307;52.508;6.090;2023-06-22T06:34:28;15.65;;;12.45;;
75691;SDS011;64307;52.508;6.090;2023-06-22T06:36:53;16.08;;;11.98;;
75691;SDS011;64307;52.508;6.090;2023-06-22T06:39:19;13.87;;;11.20;;
75691;SDS011;64307;52.508;6.090;2023-06-22T06:41:45;16.60;;;11.80;;
75691;SDS011;64307;52.508;6.090;2023-06-22T06:44:10;16.65;;;11.80;;
75691;SDS011;64307;52.508;6.090;2023-06-22T06:46:37;16.58;;;11.02;;
75691;SDS011;64307;52.508;6.090;2023-06-22T06:49:03;16.42;;;10.93;;
75691;SDS011;64307;52.508;6.090;2023-06-22T06:51:28;13.23;;;10.27;;
75691;SDS011;64307;52.508;6.090;2023-06-22T06:53:54;15.23;;;11.38;;
75691;SDS011;64307;52.508;6.090;2023-06-22T06:56:19;14.10;;;10.30;;
75691;SDS011;64307;52.508;6.090;2023-06-22T06:58:44;15.15;;;10.60;;
75691;SDS011;64307;52.508;6.090;2023-06-22T07:01:10;12.55;;;9.63;;
75691;SDS011;64307;52.508;6.090;2023-06-22T07:03:37;14.75;;;10.00;;
75691;SDS011;64307;52.508;6.090;2023-06-22T07:06:02;13.93;;;10.20;;
75691;SDS011;64307;52.508;6.090;2023-06-22T07:08:27;11.40;;;8.77;;
75691;SDS011;64307;52.508;6.090;2023-06-22T07:10:53;15.23;;;10.32;;
75691;SDS011;64307;52.508;6.090;2023-06-22T07:13:19;13.63;;;10.43;;
75691;SDS011;64307;52.508;6.090;2023-06-22T07:15:44;13.60;;;9.47;;
75691;SDS011;64307;52.508;6.090;2023-06-22T07:18:09;15.53;;;9.30;;
75691;SDS011;64307;52.508;6.090;2023-06-22T07:20:34;13.43;;;9.65;;
75691;SDS011;64307;52.508;6.090;2023-06-22T07:23:00;15.07;;;10.20;;
75691;SDS011;64307;52.508;6.090;2023-06-22T07:25:25;14.00;;;10.23;;
75691;SDS011;64307;52.508;6.090;2023-06-22T07:27:58;13.73;;;9.48;;
75691;SDS011;64307;52.508;6.090;2023-06-22T07:30:26;14.02;;;10.10;;
75691;SDS011;64307;52.508;6.090;2023-06-22T07:32:52;13.35;;;10.00;;
75691;SDS011;64307;52.508;6.090;2023-06-22T07:35:17;13.73;;;10.77;;
75691;SDS011;64307;52.508;6.090;2023-06-22T07:37:42;15.07;;;10.50;;
75691;SDS011;64307;52.508;6.090;2023-06-22T07:40:08;13.20;;;10.38;;
75691;SDS011;64307;52.508;6.090;2023-06-22T07:42:34;13.77;;;10.05;;
75691;SDS011;64307;52.508;6.090;2023-06-22T07:44:59;15.40;;;10.70;;
75691;SDS011;64307;52.508;6.090;2023-06-22T07:47:27;13.40;;;10.18;;
75691;SDS011;64307;52.508;6.090;2023-06-22T07:49:53;15.70;;;9.70;;
75691;SDS011;64307;52.508;6.090;2023-06-22T07:52:20;13.73;;;8.98;;
75691;SDS011;64307;52.508;6.090;2023-06-22T07:54:46;12.02;;;8.43;;
75691;SDS011;64307;52.508;6.090;2023-06-22T07:57:11;13.45;;;9.15;;
75691;SDS011;64307;52.508;6.090;2023-06-22T07:59:37;13.60;;;9.85;;
75691;SDS011;64307;52.508;6.090;2023-06-22T08:02:03;12.70;;;10.00;;
75691;SDS011;64307;52.508;6.090;2023-06-22T08:04:28;12.20;;;8.88;;
75691;SDS011;64307;52.508;6.090;2023-06-22T08:06:55;11.50;;;9.00;;
75691;SDS011;64307;52.508;6.090;2023-06-22T08:09:21;13.88;;;9.82;;
75691;SDS011;64307;52.508;6.090;2023-06-22T08:11:47;11.50;;;8.25;;
75691;SDS011;64307;52.508;6.090;2023-06-22T08:14:13;13.20;;;10.15;;
75691;SDS011;64307;52.508;6.090;2023-06-22T08:16:40;15.25;;;10.05;;
75691;SDS011;64307;52.508;6.090;2023-06-22T08:19:06;15.00;;;10.48;;
75691;SDS011;64307;52.508;6.090;2023-06-22T08:21:31;15.70;;;10.88;;
75691;SDS011;64307;52.508;6.090;2023-06-22T08:23:57;12.87;;;9.97;;
75691;SDS011;64307;52.508;6.090;2023-06-22T08:26:22;14.82;;;10.32;;
75691;SDS011;64307;52.508;6.090;2023-06-22T08:28:48;13.88;;;9.23;;
75691;SDS011;64307;52.508;6.090;2023-06-22T08:31:13;13.07;;;9.48;;
75691;SDS011;64307;52.508;6.090;2023-06-22T08:33:39;14.50;;;9.67;;
75691;SDS011;64307;52.508;6.090;2023-06-22T08:36:05;14.50;;;11.30;;
75691;SDS011;64307;52.508;6.090;2023-06-22T08:38:31;16.23;;;9.73;;
75691;SDS011;64307;52.508;6.090;2023-06-22T08:40:56;15.55;;;10.90;;
75691;SDS011;64307;52.508;6.090;2023-06-22T08:43:22;12.20;;;9.40;;
75691;SDS011;64307;52.508;6.090;2023-06-22T08:45:47;14.18;;;11.02;;
75691;SDS011;64307;52.508;6.090;2023-06-22T08:48:13;15.23;;;10.23;;
75691;SDS011;64307;52.508;6.090;2023-06-22T08:50:38;12.82;;;10.45;;
75691;SDS011;64307;52.508;6.090;2023-06-22T08:53:05;13.38;;;11.20;;
75691;SDS011;64307;52.508;6.090;2023-06-22T08:55:30;15.23;;;11.48;;
75691;SDS011;64307;52.508;6.090;2023-06-22T08:57:56;16.23;;;11.23;;
75691;SDS011;64307;52.508;6.090;2023-06-22T09:00:21;14.63;;;10.40;;
75691;SDS011;64307;52.508;6.090;2023-06-22T09:02:47;12.77;;;10.05;;
75691;SDS011;64307;52.508;6.090;2023-06-22T09:05:12;13.40;;;9.18;;
75691;SDS011;64307;52.508;6.090;2023-06-22T09:07:38;15.10;;;11.65;;
75691;SDS011;64307;52.508;6.090;2023-06-22T09:10:04;12.80;;;11.15;;
75691;SDS011;64307;52.508;6.090;2023-06-22T09:12:30;13.20;;;10.25;;
75691;SDS011;64307;52.508;6.090;2023-06-22T09:14:57;13.82;;;10.57;;
75691;SDS011;64307;52.508;6.090;2023-06-22T09:17:22;15.35;;;12.20;;
75691;SDS011;64307;52.508;6.090;2023-06-22T09:19:48;16.73;;;12.30;;
75691;SDS011;64307;52.508;6.090;2023-06-22T09:22:13;12.85;;;10.85;;
75691;SDS011;64307;52.508;6.090;2023-06-22T09:24:39;13.60;;;10.93;;
75691;SDS011;64307;52.508;6.090;2023-06-22T09:27:04;12.85;;;10.35;;
75691;SDS011;64307;52.508;6.090;2023-06-22T09:29:30;15.07;;;9.82;;
75691;SDS011;64307;52.508;6.090;2023-06-22T09:31:58;12.73;;;10.48;;
75691;SDS011;64307;52.508;6.090;2023-06-22T09:34:23;12.23;;;9.52;;
75691;SDS011;64307;52.508;6.090;2023-06-22T09:36:48;16.38;;;9.48;;
75691;SDS011;64307;52.508;6.090;2023-06-22T09:39:14;15.90;;;11.23;;
75691;SDS011;64307;52.508;6.090;2023-06-22T09:41:39;12.38;;;10.15;;
75691;SDS011;64307;52.508;6.090;2023-06-22T09:44:05;15.98;;;9.82;;
75691;SDS011;64307;52.508;6.090;2023-06-22T09:46:30;11.63;;;10.10;;
75691;SDS011;64307;52.508;6.090;2023-06-22T09:48:56;15.20;;;9.68;;
75691;SDS011;64307;52.508;6.090;2023-06-22T09:51:21;12.33;;;10.17;;
75691;SDS011;64307;52.508;6.090;2023-06-22T09:53:48;12.57;;;9.02;;
75691;SDS011;64307;52.508;6.090;2023-06-22T09:56:13;13.25;;;9.90;;
75691;SDS011;64307;52.508;6.090;2023-06-22T09:58:43;14.23;;;9.05;;
75691;SDS011;64307;52.508;6.090;2023-06-22T10:01:09;17.77;;;8.43;;
75691;SDS011;64307;52.508;6.090;2023-06-22T10:03:35;10.85;;;7.30;;
75691;SDS011;64307;52.508;6.090;2023-06-22T10:06:01;17.05;;;9.05;;
75691;SDS011;64307;52.508;6.090;2023-06-22T10:08:27;11.13;;;7.82;;
75691;SDS011;64307;52.508;6.090;2023-06-22T10:10:52;11.20;;;8.18;;
75691;SDS011;64307;52.508;6.090;2023-06-22T10:13:17;12.95;;;8.18;;
75691;SDS011;64307;52.508;6.090;2023-06-22T10:15:43;15.05;;;7.63;;
75691;SDS011;64307;52.508;6.090;2023-06-22T10:18:14;10.18;;;6.75;;
75691;SDS011;64307;52.508;6.090;2023-06-22T10:20:40;12.55;;;7.43;;
75691;SDS011;64307;52.508;6.090;2023-06-22T10:23:05;13.47;;;7.10;;
75691;SDS011;64307;52.508;6.090;2023-06-22T10:25:30;9.35;;;7.10;;
75691;SDS011;64307;52.508;6.090;2023-06-22T10:27:55;12.18;;;7.00;;
75691;SDS011;64307;52.508;6.090;2023-06-22T10:30:21;10.80;;;5.88;;
75691;SDS011;64307;52.508;6.090;2023-06-22T10:32:46;9.93;;;8.07;;
75691;SDS011;64307;52.508;6.090;2023-06-22T10:35:12;10.53;;;8.03;;
75691;SDS011;64307;52.508;6.090;2023-06-22T10:37:44;9.65;;;7.07;;
75691;SDS011;64307;52.508;6.090;2023-06-22T10:40:11;9.07;;;7.50;;
75691;SDS011;64307;52.508;6.090;2023-06-22T10:42:41;10.07;;;7.18;;
75691;SDS011;64307;52.508;6.090;2023-06-22T10:45:06;10.77;;;7.03;;
75691;SDS011;64307;52.508;6.090;2023-06-22T10:47:33;9.85;;;7.00;;
75691;SDS011;64307;52.508;6.090;2023-06-22T10:49:58;12.95;;;6.70;;
75691;SDS011;64307;52.508;6.090;2023-06-22T10:52:23;9.00;;;6.60;;
75691;SDS011;64307;52.508;6.090;2023-06-22T10:54:49;10.77;;;7.03;;
75691;SDS011;64307;52.508;6.090;2023-06-22T10:57:14;9.53;;;7.07;;
75691;SDS011;64307;52.508;6.090;2023-06-22T10:59:41;9.65;;;7.35;;
75691;SDS011;64307;52.508;6.090;2023-06-22T11:02:06;8.35;;;6.60;;
75691;SDS011;64307;52.508;6.090;2023-06-22T11:04:31;9.13;;;6.20;;
75691;SDS011;64307;52.508;6.090;2023-06-22T11:06:57;10.73;;;6.88;;
75691;SDS011;64307;52.508;6.090;2023-06-22T11:09:22;10.23;;;7.35;;
75691;SDS011;64307;52.508;6.090;2023-06-22T11:11:48;14.13;;;7.60;;
75691;SDS011;64307;52.508;6.090;2023-06-22T11:14:15;8.50;;;7.15;;
75691;SDS011;64307;52.508;6.090;2023-06-22T11:16:40;10.30;;;7.05;;
75691;SDS011;64307;52.508;6.090;2023-06-22T11:19:06;8.55;;;6.15;;
75691;SDS011;64307;52.508;6.090;2023-06-22T11:21:32;11.18;;;6.63;;
75691;SDS011;64307;52.508;6.090;2023-06-22T11:24:00;10.47;;;7.70;;
75691;SDS011;64307;52.508;6.090;2023-06-22T11:26:26;9.98;;;7.38;;
75691;SDS011;64307;52.508;6.090;2023-06-22T11:28:54;9.27;;;7.00;;
75691;SDS011;64307;52.508;6.090;2023-06-22T11:31:20;10.13;;;6.68;;
75691;SDS011;64307;52.508;6.090;2023-06-22T11:33:45;9.40;;;6.38;;
75691;SDS011;64307;52.508;6.090;2023-06-22T11:36:12;11.32;;;7.97;;
75691;SDS011;64307;52.508;6.090;2023-06-22T11:38:37;11.98;;;8.35;;
75691;SDS011;64307;52.508;6.090;2023-06-22T11:41:04;10.65;;;6.88;;
75691;SDS011;64307;52.508;6.090;2023-06-22T11:43:30;11.20;;;8.07;;
75691;SDS011;64307;52.508;6.090;2023-06-22T11:45:57;10.43;;;7.07;;
75691;SDS011;64307;52.508;6.090;2023-06-22T11:48:23;12.57;;;7.03;;
75691;SDS011;64307;52.508;6.090;2023-06-22T11:50:49;8.70;;;6.07;;
75691;SDS011;64307;52.508;6.090;2023-06-22T11:53:14;8.68;;;6.55;;
75691;SDS011;64307;52.508;6.090;2023-06-22T11:55:41;8.25;;;6.15;;
75691;SDS011;64307;52.508;6.090;2023-06-22T11:58:07;9.13;;;6.30;;
75691;SDS011;64307;52.508;6.090;2023-06-22T12:00:33;9.75;;;7.60;;
75691;SDS011;64307;52.508;6.090;2023-06-22T12:02:58;10.80;;;5.90;;
75691;SDS011;64307;52.508;6.090;2023-06-22T12:05:24;7.93;;;6.00;;
75691;SDS011;64307;52.508;6.090;2023-06-22T12:07:49;7.32;;;5.15;;
75691;SDS011;64307;52.508;6.090;2023-06-22T12:10:15;8.70;;;5.38;;
75691;SDS011;64307;52.508;6.090;2023-06-22T12:12:41;8.05;;;5.30;;
75691;SDS011;64307;52.508;6.090;2023-06-22T12:15:07;9.27;;;5.70;;
75691;SDS011;64307;52.508;6.090;2023-06-22T12:17:34;8.93;;;4.43;;
75691;SDS011;64307;52.508;6.090;2023-06-22T12:19:59;6.47;;;4.57;;
75691;SDS011;64307;52.508;6.090;2023-06-22T12:22:25;8.48;;;4.78;;
75691;SDS011;64307;52.508;6.090;2023-06-22T12:24:50;8.40;;;4.80;;
75691;SDS011;64307;52.508;6.090;2023-06-22T12:27:16;7.45;;;4.25;;
75691;SDS011;64307;52.508;6.090;2023-06-22T12:29:45;7.88;;;4.75;;
75691;SDS011;64307;52.508;6.090;2023-06-22T12:32:10;6.85;;;4.80;;
75691;SDS011;64307;52.508;6.090;2023-06-22T12:34:38;6.70;;;4.30;;
75691;SDS011;64307;52.508;6.090;2023-06-22T12:37:03;8.25;;;4.85;;
75691;SDS011;64307;52.508;6.090;2023-06-22T12:39:30;8.15;;;3.92;;
75691;SDS011;64307;52.508;6.090;2023-06-22T12:41:56;8.25;;;3.80;;
75691;SDS011;64307;52.508;6.090;2023-06-22T12:44:21;7.18;;;4.30;;
75691;SDS011;64307;52.508;6.090;2023-06-22T12:46:46;5.60;;;3.47;;
75691;SDS011;64307;52.508;6.090;2023-06-22T12:49:11;5.35;;;3.60;;
75691;SDS011;64307;52.508;6.090;2023-06-22T12:51:39;5.10;;;2.37;;
75691;SDS011;64307;52.508;6.090;2023-06-22T12:54:06;5.93;;;3.53;;
75691;SDS011;64307;52.508;6.090;2023-06-22T12:56:31;6.47;;;3.27;;
75691;SDS011;64307;52.508;6.090;2023-06-22T12:58:57;5.88;;;3.53;;
75691;SDS011;64307;52.508;6.090;2023-06-22T13:01:22;5.38;;;3.70;;
75691;SDS011;64307;52.508;6.090;2023-06-22T13:03:47;6.53;;;3.97;;
75691;SDS011;64307;52.508;6.090;2023-06-22T13:06:13;6.07;;;3.67;;
75691;SDS011;64307;52.508;6.090;2023-06-22T13:08:38;6.82;;;3.92;;
75691;SDS011;64307;52.508;6.090;2023-06-22T13:11:03;10.45;;;4.25;;
75691;SDS011;64307;52.508;6.090;2023-06-22T13:13:29;7.33;;;3.70;;
75691;SDS011;64307;52.508;6.090;2023-06-22T13:15:54;5.72;;;3.92;;
75691;SDS011;64307;52.508;6.090;2023-06-22T13:18:19;6.17;;;3.63;;
75691;SDS011;64307;52.508;6.090;2023-06-22T13:20:44;6.55;;;4.05;;
75691;SDS011;64307;52.508;6.090;2023-06-22T13:23:10;6.57;;;4.10;;
75691;SDS011;64307;52.508;6.090;2023-06-22T13:25:36;7.88;;;4.57;;
75691;SDS011;64307;52.508;6.090;2023-06-22T13:28:01;7.47;;;4.80;;
75691;SDS011;64307;52.508;6.090;2023-06-22T13:30:26;10.03;;;4.33;;
75691;SDS011;64307;52.508;6.090;2023-06-22T13:32:53;9.32;;;5.28;;
75691;SDS011;64307;52.508;6.090;2023-06-22T13:35:18;7.47;;;5.37;;
75691;SDS011;64307;52.508;6.090;2023-06-22T13:37:43;7.35;;;4.85;;
75691;SDS011;64307;52.508;6.090;2023-06-22T13:40:09;7.63;;;4.93;;
75691;SDS011;64307;52.508;6.090;2023-06-22T13:42:34;7.68;;;5.30;;
75691;SDS011;64307;52.508;6.090;2023-06-22T13:45:00;13.18;;;5.45;;
75691;SDS011;64307;52.508;6.090;2023-06-22T13:47:25;11.00;;;6.15;;
75691;SDS011;64307;52.508;6.090;2023-06-22T13:49:50;8.73;;;5.80;;
75691;SDS011;64307;52.508;6.090;2023-06-22T13:52:16;10.37;;;7.63;;
75691;SDS011;64307;52.508;6.090;2023-06-22T13:54:41;9.23;;;6.80;;
75691;SDS011;64307;52.508;6.090;2023-06-22T13:57:06;9.90;;;6.95;;
75691;SDS011;64307;52.508;6.090;2023-06-22T13:59:32;11.45;;;6.97;;
75691;SDS011;64307;52.508;6.090;2023-06-22T14:01:57;8.40;;;6.55;;
75691;SDS011;64307;52.508;6.090;2023-06-22T14:04:23;10.88;;;7.15;;
75691;SDS011;64307;52.508;6.090;2023-06-22T14:06:48;9.73;;;6.18;;
75691;SDS011;64307;52.508;6.090;2023-06-22T14:09:14;9.40;;;6.45;;
75691;SDS011;64307;52.508;6.090;2023-06-22T14:11:39;9.30;;;7.03;;
75691;SDS011;64307;52.508;6.090;2023-06-22T14:14:04;12.70;;;7.73;;
75691;SDS011;64307;52.508;6.090;2023-06-22T14:16:29;9.85;;;6.60;;
75691;SDS011;64307;52.508;6.090;2023-06-22T14:18:55;12.10;;;7.57;;
75691;SDS011;64307;52.508;6.090;2023-06-22T14:21:20;11.23;;;7.45;;
75691;SDS011;64307;52.508;6.090;2023-06-22T14:23:45;10.73;;;7.75;;
75691;SDS011;64307;52.508;6.090;2023-06-22T14:26:14;12.43;;;8.48;;